Guilderland Center, New York
Current Conditions -  °F | °C
As of 8:51 AM on Friday 28 Nov 2014 (Local Time) from KALB Reporting Station
Scattered Clouds Scattered Clouds  
Wind Chill: 17°   Ceiling: Unl
Heat Index: 28°   Visibility: 10mi
Dew Point: 17°   Wind: 15mph
Humidity: 63%   Direction: 310°NW
Pressure: 30.15"   Gusts: 21mph
Location:  42.7°N, 73.97°W
Report Text: KALB 281351Z 31013G18KT 10SM FEW028 FEW045 SCT100 M02/M08 A3015 RMK AO2 SLP213 T10221083
Loading
Personal Weather Stations






























Interactive Weather Map New forecast layout! Learn more

10-Day Weather Forecast

Advertisements
Track Severe Weather on mobile